Country
Station

 

Weather  for  Tijuana International Airport  -  Mexico    Mexico

  
15 °C (59 °F)
    
 
 

Current METAR for Tijuana International Airport is :

MMTJ 212053Z 23011KT 8SM BKN050 15/00 A3015 RMK SLP214 57008 912 8/500 HZY

 

This is a report for Tijuana International Airport - Mexico.
 
The report was made 2 hours and 56 minutes ago, at 20:53 UTC .
The wind was blowing at a speed of 5.7 meters per second (12.7 miles per hour) from southwest (230°).
 
The temperature was 15 °C (59 °F)
The atmospheric pressure was 1021 hPa (30.15 inHg).
There were broken clouds at a height of 1524 meters (5000 feet).
 
The overall visibility was 12.9 kilometers (8.0 miles).
 

 
 
 
 

Country :   A   B   C   D   E   F   G   H   I   J   K   L   M   N   O   P   Q   R   S   T   U   V   W   Y   Z

 

Site Info  |  Disclaimer  |  Credits  |  Privacy
Contact us  |  Add to favorites
© 2013-2018 METARs - All rights reserved